createdAt,value
2022-12-18T00:01:35.205Z,19.85
2022-12-18T00:04:10.066Z,20.10
2022-12-18T00:06:39.022Z,19.10
2022-12-18T00:09:07.701Z,18.85
2022-12-18T00:11:37.017Z,20.27
2022-12-18T00:14:05.976Z,19.27
2022-12-18T00:16:38.120Z,18.80
2022-12-18T00:19:08.460Z,20.58
2022-12-18T00:21:36.989Z,19.58
2022-12-18T00:24:06.741Z,19.97
2022-12-18T00:26:36.798Z,18.65
2022-12-18T00:29:08.394Z,20.17
2022-12-18T00:31:40.346Z,20.50
2022-12-18T00:34:10.013Z,19.48
2022-12-18T00:36:42.398Z,19.50
2022-12-18T00:39:13.537Z,19.25
2022-12-18T00:42:00.220Z,19.67
2022-12-18T00:44:29.635Z,19.45
2022-12-18T00:46:59.906Z,17.40
2022-12-18T00:49:28.907Z,17.23
2022-12-18T00:51:57.625Z,18.80
2022-12-18T00:54:26.589Z,18.15
2022-12-18T00:56:56.332Z,18.95
2022-12-18T00:59:25.748Z,17.35
2022-12-18T01:01:54.412Z,17.07
2022-12-18T01:04:24.623Z,16.70
2022-12-18T01:06:53.363Z,18.00
2022-12-18T01:09:22.653Z,18.00
2022-12-18T01:11:54.494Z,18.60
2022-12-18T01:14:23.590Z,17.23
2022-12-18T01:16:52.385Z,17.17
2022-12-18T01:19:21.445Z,18.27
2022-12-18T01:21:51.723Z,20.23
2022-12-18T01:24:21.081Z,16.88
2022-12-18T01:26:51.157Z,17.53
2022-12-18T01:29:20.466Z,18.60
2022-12-18T01:31:49.215Z,17.77
2022-12-18T01:34:18.406Z,15.95
2022-12-18T01:36:47.293Z,15.82
2022-12-18T01:39:17.625Z,17.33
2022-12-18T01:42:03.920Z,16.05
2022-12-18T01:44:59.975Z,15.98
2022-12-18T01:47:33.138Z,17.25
2022-12-18T01:50:06.006Z,16.63
2022-12-18T01:52:36.141Z,15.00
2022-12-18T01:55:08.526Z,14.75
2022-12-18T01:57:38.839Z,16.40
2022-12-18T02:00:11.255Z,17.10
2022-12-18T02:02:44.729Z,16.88
2022-12-18T02:05:19.056Z,16.60
2022-12-18T02:08:16.069Z,17.27
2022-12-18T02:10:54.017Z,17.42
2022-12-18T02:13:39.030Z,17.05
2022-12-18T02:16:15.239Z,16.23
2022-12-18T02:18:49.948Z,16.97
2022-12-18T02:21:31.096Z,14.85
2022-12-18T02:24:13.181Z,17.10
2022-12-18T02:26:48.319Z,17.60
2022-12-18T02:29:20.303Z,17.20
2022-12-18T02:31:54.499Z,16.67
2022-12-18T02:34:28.541Z,15.85
2022-12-18T02:36:59.462Z,16.75
2022-12-18T02:39:32.013Z,17.02
2022-12-18T02:42:09.170Z,18.75
2022-12-18T02:44:44.838Z,16.57
2022-12-18T02:47:15.995Z,16.60
2022-12-18T02:49:55.792Z,18.83
2022-12-18T02:52:33.453Z,17.23
2022-12-18T02:55:12.921Z,16.08
2022-12-18T02:57:50.823Z,17.83
2022-12-18T03:00:26.090Z,17.23
2022-12-18T03:03:02.185Z,18.75
2022-12-18T03:05:36.573Z,18.83
2022-12-18T03:08:09.802Z,17.10
2022-12-18T03:10:45.340Z,17.63
2022-12-18T03:13:21.366Z,16.88
2022-12-18T03:15:53.454Z,17.15
2022-12-18T03:18:26.733Z,17.85
2022-12-18T03:20:59.425Z,18.10
2022-12-18T03:23:34.848Z,17.43
2022-12-18T03:26:07.875Z,17.23
2022-12-18T03:28:45.028Z,16.98
2022-12-18T03:31:16.725Z,16.45
2022-12-18T03:33:53.402Z,18.92
2022-12-18T03:36:27.554Z,17.53
2022-12-18T03:38:59.528Z,17.42
2022-12-18T03:41:34.426Z,16.27
2022-12-18T03:44:30.443Z,14.55
2022-12-18T03:47:07.529Z,16.48
2022-12-18T03:49:41.333Z,15.20
2022-12-18T03:52:14.107Z,14.68
2022-12-18T03:54:44.997Z,15.48
2022-12-18T03:57:20.707Z,13.90
2022-12-18T03:59:58.797Z,15.10
2022-12-18T04:02:34.587Z,16.00
2022-12-18T04:05:07.350Z,14.25
2022-12-18T04:07:40.910Z,13.95
2022-12-18T04:10:15.692Z,13.70
2022-12-18T04:12:45.823Z,13.55
2022-12-18T04:15:17.438Z,14.53
2022-12-18T04:17:51.077Z,13.52
2022-12-18T04:20:24.157Z,15.40
2022-12-18T04:22:53.360Z,15.27
2022-12-18T04:25:22.830Z,15.65
2022-12-18T04:28:01.387Z,14.07
2022-12-18T04:30:32.400Z,13.95
2022-12-18T04:33:01.350Z,14.10
2022-12-18T04:35:32.809Z,13.25
2022-12-18T04:38:01.882Z,12.85
2022-12-18T04:40:30.725Z,13.47
2022-12-18T04:43:00.316Z,12.82
2022-12-18T04:45:29.085Z,14.82
2022-12-18T04:48:00.879Z,13.20
2022-12-18T04:50:30.230Z,15.45
2022-12-18T04:52:59.484Z,15.83
2022-12-18T04:55:29.520Z,14.55
2022-12-18T04:57:58.214Z,14.70
2022-12-18T05:00:27.192Z,14.82
2022-12-18T05:02:56.621Z,15.00
2022-12-18T05:05:27.418Z,15.00
2022-12-18T05:07:56.196Z,15.65
2022-12-18T05:10:25.463Z,15.88
2022-12-18T05:13:10.778Z,16.55
2022-12-18T05:15:39.929Z,15.27
2022-12-18T05:18:08.783Z,15.53
2022-12-18T05:20:38.931Z,14.93
2022-12-18T05:23:07.559Z,13.77
2022-12-18T05:25:36.850Z,16.30
2022-12-18T05:28:06.267Z,15.65
2022-12-18T05:30:35.419Z,13.93
2022-12-18T05:33:04.198Z,15.18
2022-12-18T05:35:33.266Z,15.85
2022-12-18T05:38:03.218Z,15.98
2022-12-18T05:40:32.487Z,14.30
2022-12-18T05:43:02.318Z,13.90
2022-12-18T05:45:34.186Z,13.50
2022-12-18T05:48:03.222Z,13.27
2022-12-18T05:50:32.202Z,13.73
2022-12-18T05:53:06.381Z,13.10
2022-12-18T05:55:36.227Z,13.73
2022-12-18T05:58:05.877Z,13.55
2022-12-18T06:00:36.602Z,13.57
2022-12-18T06:03:06.275Z,13.55
2022-12-18T06:05:37.997Z,13.15
2022-12-18T06:08:08.732Z,13.73
2022-12-18T06:10:37.794Z,13.38
2022-12-18T06:13:07.635Z,14.05
2022-12-18T06:15:39.215Z,14.65
2022-12-18T06:18:08.313Z,13.35
2022-12-18T06:20:38.197Z,12.77
2022-12-18T06:23:08.755Z,13.38
2022-12-18T06:25:40.828Z,14.35
2022-12-18T06:28:09.826Z,13.30
2022-12-18T06:30:39.436Z,15.02
2022-12-18T06:33:08.379Z,13.47
2022-12-18T06:35:36.946Z,14.23
2022-12-18T06:38:06.197Z,13.02
2022-12-18T06:40:36.387Z,14.77
2022-12-18T06:43:05.353Z,14.68
2022-12-18T06:45:33.932Z,14.40
2022-12-18T06:48:02.988Z,13.48
2022-12-18T06:50:32.096Z,13.25
2022-12-18T06:53:01.780Z,14.95
2022-12-18T06:55:31.401Z,13.98
2022-12-18T06:58:01.711Z,14.40
2022-12-18T07:00:30.349Z,13.48
2022-12-18T07:02:59.834Z,14.27
2022-12-18T07:05:28.484Z,13.13
2022-12-18T07:07:57.506Z,14.63
2022-12-18T07:10:26.400Z,13.07
2022-12-18T07:12:55.357Z,14.05
2022-12-18T07:15:25.798Z,12.98
2022-12-18T07:17:54.822Z,12.80
2022-12-18T07:20:23.434Z,13.75
2022-12-18T07:22:56.255Z,12.67
2022-12-18T07:25:25.882Z,12.93
2022-12-18T07:27:54.753Z,11.90
2022-12-18T07:30:25.266Z,10.10
2022-12-18T07:32:54.308Z,11.65
2022-12-18T07:35:25.133Z,10.83
2022-12-18T07:37:54.551Z,10.38
2022-12-18T07:40:23.371Z,9.43
2022-12-18T07:42:52.210Z,9.25
2022-12-18T07:45:21.799Z,9.30
2022-12-18T07:47:51.891Z,9.10
2022-12-18T07:50:20.958Z,8.82
2022-12-18T07:52:49.865Z,8.93
2022-12-18T07:55:18.993Z,9.02
2022-12-18T07:57:50.987Z,9.40
2022-12-18T08:00:21.994Z,10.33
2022-12-18T08:02:52.213Z,8.38
2022-12-18T08:05:21.839Z,9.13
2022-12-18T08:07:50.927Z,9.07
2022-12-18T08:10:19.788Z,8.50
2022-12-18T08:12:52.326Z,9.00
2022-12-18T08:15:21.379Z,8.75
2022-12-18T08:17:51.380Z,8.45
2022-12-18T08:20:20.567Z,8.57
2022-12-18T08:22:49.490Z,8.82
2022-12-18T08:25:18.582Z,8.03
2022-12-18T08:27:47.287Z,8.45
2022-12-18T08:30:16.639Z,8.65
2022-12-18T08:32:45.508Z,8.05
2022-12-18T08:35:18.742Z,8.98
2022-12-18T08:37:47.897Z,8.63
2022-12-18T08:40:16.551Z,8.30
2022-12-18T08:43:03.421Z,9.07
2022-12-18T08:45:36.477Z,8.43
2022-12-18T08:48:05.947Z,8.73
2022-12-18T08:50:35.960Z,7.63
2022-12-18T08:53:05.114Z,8.13
2022-12-18T08:55:34.060Z,8.07
2022-12-18T08:58:03.268Z,7.85
2022-12-18T09:00:34.070Z,8.38
2022-12-18T09:03:03.263Z,7.57
2022-12-18T09:05:32.712Z,8.02
2022-12-18T09:08:03.280Z,8.05
2022-12-18T09:10:32.258Z,7.63
2022-12-18T09:13:01.108Z,9.02
2022-12-18T09:15:29.650Z,8.57
2022-12-18T09:17:58.591Z,8.55
2022-12-18T09:20:29.475Z,7.82
2022-12-18T09:22:58.725Z,7.88
2022-12-18T09:25:33.046Z,8.07
2022-12-18T09:28:03.051Z,7.73
2022-12-18T09:30:34.460Z,7.97
2022-12-18T09:33:03.968Z,6.80
2022-12-18T09:35:33.217Z,7.53
2022-12-18T09:38:02.567Z,8.02
2022-12-18T09:40:38.421Z,8.03
2022-12-18T09:43:09.491Z,8.35
2022-12-18T09:45:45.155Z,7.80
2022-12-18T09:48:21.495Z,8.48
2022-12-18T09:50:52.494Z,7.38
2022-12-18T09:53:29.604Z,8.13
2022-12-18T09:56:00.134Z,7.93
2022-12-18T09:58:32.719Z,8.60
2022-12-18T10:01:01.618Z,7.05
2022-12-18T10:03:31.067Z,7.93
2022-12-18T10:06:07.121Z,8.80
2022-12-18T10:08:45.289Z,7.38
2022-12-18T10:11:30.030Z,8.23
2022-12-18T10:14:05.229Z,7.95
2022-12-18T10:16:41.299Z,7.40
2022-12-18T10:19:26.696Z,7.77
2022-12-18T10:22:06.640Z,7.60
2022-12-18T10:24:43.126Z,8.13
2022-12-18T10:27:17.277Z,7.45
2022-12-18T10:29:48.117Z,7.20
2022-12-18T10:32:19.506Z,7.23
2022-12-18T10:34:49.552Z,7.10
2022-12-18T10:37:21.078Z,8.82
2022-12-18T10:40:09.407Z,6.28
2022-12-18T10:42:40.917Z,8.43
2022-12-18T10:45:15.017Z,7.33
2022-12-18T10:47:46.889Z,7.63
2022-12-18T10:50:47.131Z,7.82
2022-12-18T10:53:22.612Z,7.00
2022-12-18T10:55:53.431Z,8.05
2022-12-18T10:58:34.721Z,7.57
2022-12-18T11:01:08.000Z,8.07
2022-12-18T11:03:39.617Z,8.07
2022-12-18T11:06:12.180Z,8.13
2022-12-18T11:08:41.861Z,8.30
2022-12-18T11:11:22.483Z,6.67
2022-12-18T11:14:01.766Z,7.68
2022-12-18T11:16:33.575Z,7.82
2022-12-18T11:19:23.560Z,8.18
2022-12-18T11:21:52.940Z,7.93
2022-12-18T11:24:29.866Z,8.00
2022-12-18T11:27:01.527Z,7.80
2022-12-18T11:29:36.442Z,7.38
2022-12-18T11:32:29.861Z,7.70
2022-12-18T11:35:05.707Z,7.28
2022-12-18T11:37:35.371Z,8.37
2022-12-18T11:40:12.751Z,7.93
2022-12-18T11:42:48.017Z,7.65
2022-12-18T11:49:15.040Z,7.90
2022-12-18T11:51:53.410Z,8.07
2022-12-18T11:54:22.493Z,7.90
2022-12-18T11:56:56.167Z,8.18
2022-12-18T11:59:33.141Z,8.20
2022-12-18T12:02:20.229Z,7.65
2022-12-18T12:05:03.530Z,7.63
2022-12-18T12:07:44.292Z,7.80
2022-12-18T12:10:29.441Z,7.50
2022-12-18T12:13:18.611Z,8.05
2022-12-18T12:15:54.517Z,7.75
2022-12-18T12:18:36.022Z,7.90
2022-12-18T12:21:12.817Z,8.07
2022-12-18T12:23:52.072Z,7.82
2022-12-18T12:26:28.902Z,7.47
2022-12-18T12:29:05.739Z,6.85
2022-12-18T12:31:56.054Z,7.40
2022-12-18T12:34:33.934Z,8.23
2022-12-18T12:37:18.232Z,7.35
2022-12-18T12:39:49.486Z,8.23
2022-12-18T12:42:51.542Z,7.90
2022-12-18T12:45:30.072Z,7.23
2022-12-18T12:48:00.892Z,6.63
2022-12-18T12:50:36.133Z,7.95
2022-12-18T12:53:12.808Z,6.93
2022-12-18T12:55:43.589Z,7.57
2022-12-18T12:58:20.034Z,7.57
2022-12-18T13:01:02.795Z,7.55
2022-12-18T13:03:44.330Z,8.20
2022-12-18T13:06:21.503Z,7.60
2022-12-18T13:08:57.354Z,7.43
2022-12-18T13:11:59.687Z,7.00
2022-12-18T13:14:33.480Z,6.95
2022-12-18T13:17:30.514Z,7.65
2022-12-18T13:20:11.379Z,7.53
2022-12-18T13:22:46.256Z,7.00
2022-12-18T13:25:36.228Z,6.97
2022-12-18T13:28:12.730Z,6.40
2022-12-18T13:30:55.543Z,6.57
2022-12-18T13:36:42.887Z,7.05
2022-12-18T13:39:34.245Z,6.93
2022-12-18T13:42:57.493Z,7.30
2022-12-18T13:45:43.071Z,6.45
2022-12-18T13:48:19.651Z,7.05
2022-12-18T13:50:54.871Z,6.68
2022-12-18T13:53:28.668Z,6.23
2022-12-18T13:55:59.408Z,6.68
2022-12-18T13:58:28.357Z,7.05
2022-12-18T14:00:57.886Z,6.50
2022-12-18T14:03:28.745Z,6.50
2022-12-18T14:06:02.725Z,5.97
2022-12-18T14:08:38.489Z,6.22
2022-12-18T14:11:19.524Z,6.38
2022-12-18T14:13:49.066Z,6.93
2022-12-18T14:16:20.502Z,6.13
2022-12-18T14:18:56.915Z,6.07
2022-12-18T14:21:36.307Z,6.93
2022-12-18T14:24:07.521Z,6.70
2022-12-18T14:26:37.902Z,6.90
2022-12-18T14:29:22.528Z,6.47
2022-12-18T14:32:18.329Z,6.97
2022-12-18T14:34:49.241Z,6.53
2022-12-18T14:37:22.607Z,6.93
2022-12-18T14:40:02.128Z,6.30
2022-12-18T14:42:35.026Z,6.32
2022-12-18T14:45:46.060Z,6.83
2022-12-18T14:48:23.014Z,6.68
2022-12-18T14:51:02.211Z,6.95
2022-12-18T14:53:37.969Z,6.85
2022-12-18T14:56:18.100Z,6.63
2022-12-18T14:58:50.409Z,7.13
2022-12-18T15:01:39.361Z,6.53
2022-12-18T15:04:27.944Z,7.68
2022-12-18T15:07:12.246Z,6.88
2022-12-18T15:09:42.615Z,7.03
2022-12-18T15:12:27.926Z,7.27
2022-12-18T15:14:58.562Z,6.47
2022-12-18T15:17:27.482Z,8.02
2022-12-18T15:20:02.921Z,6.72
2022-12-18T15:22:36.625Z,6.97
2022-12-18T15:25:22.943Z,6.30
2022-12-18T15:27:52.065Z,7.25
2022-12-18T15:30:24.812Z,7.07
2022-12-18T15:32:56.789Z,6.78
2022-12-18T15:35:27.440Z,8.05
2022-12-18T15:37:56.017Z,7.40
2022-12-18T15:40:26.167Z,7.70
2022-12-18T15:43:14.972Z,7.55
2022-12-18T15:45:45.522Z,7.32
2022-12-18T15:48:22.627Z,7.07
2022-12-18T15:50:52.868Z,7.77
2022-12-18T15:53:21.895Z,7.65
2022-12-18T15:56:08.766Z,6.95
2022-12-18T15:58:37.974Z,7.57
2022-12-18T16:01:10.127Z,7.43
2022-12-18T16:03:39.751Z,8.37
2022-12-18T16:06:08.976Z,7.40
2022-12-18T16:08:41.127Z,7.88
2022-12-18T16:11:38.997Z,7.82
2022-12-18T16:14:18.318Z,8.00
2022-12-18T16:16:50.592Z,7.70
2022-12-18T16:19:19.723Z,7.10
2022-12-18T16:21:49.456Z,7.88
2022-12-18T16:24:19.453Z,7.03
2022-12-18T16:26:48.038Z,7.50
2022-12-18T16:29:17.306Z,7.40
2022-12-18T16:31:46.450Z,7.68
2022-12-18T16:34:23.279Z,8.43
2022-12-18T16:36:58.922Z,8.35
2022-12-18T16:39:31.468Z,8.02
2022-12-18T16:42:00.135Z,7.70
2022-12-18T16:44:31.636Z,8.57
2022-12-18T16:47:16.534Z,8.20
2022-12-18T16:49:52.011Z,8.07
2022-12-18T16:52:26.576Z,7.70
2022-12-18T16:54:55.621Z,7.23
2022-12-18T16:57:31.294Z,7.90
2022-12-18T17:00:05.269Z,7.68
2022-12-18T17:02:37.697Z,8.07
2022-12-18T17:05:09.922Z,8.48
2022-12-18T17:07:40.623Z,8.37
2022-12-18T17:10:10.196Z,8.30
2022-12-18T17:12:39.186Z,8.77
2022-12-18T17:15:09.399Z,8.70
2022-12-18T17:17:38.373Z,8.02
2022-12-18T17:20:09.422Z,8.53
2022-12-18T17:22:38.773Z,7.57
2022-12-18T17:25:10.823Z,8.50
2022-12-18T17:27:41.123Z,9.02
2022-12-18T17:30:12.883Z,8.65
2022-12-18T17:32:52.215Z,9.63
2022-12-18T17:35:22.981Z,8.88
2022-12-18T17:37:56.052Z,8.10
2022-12-18T17:40:24.816Z,8.35
2022-12-18T17:42:54.383Z,8.00
2022-12-18T17:45:23.434Z,8.47
2022-12-18T17:47:56.776Z,8.38
2022-12-18T17:50:30.330Z,9.45
2022-12-18T17:52:59.465Z,8.50
2022-12-18T17:55:28.910Z,9.02
2022-12-18T17:57:57.654Z,9.70
2022-12-18T18:00:26.446Z,8.85
2022-12-18T18:02:55.659Z,8.77
2022-12-18T18:05:25.159Z,9.20
2022-12-18T18:07:55.503Z,9.20
2022-12-18T18:10:24.263Z,9.33
2022-12-18T18:13:10.467Z,9.57
2022-12-18T18:15:41.809Z,9.35
2022-12-18T18:18:10.764Z,8.88
2022-12-18T18:20:41.983Z,9.13
2022-12-18T18:23:12.269Z,9.80
2022-12-18T18:25:41.578Z,9.48
2022-12-18T18:28:31.228Z,10.55
2022-12-18T18:31:06.331Z,10.13
2022-12-18T18:33:36.214Z,9.98
2022-12-18T18:36:05.948Z,10.67
2022-12-18T18:38:44.116Z,9.20
2022-12-18T18:41:15.748Z,9.13
2022-12-18T18:43:44.924Z,10.45
2022-12-18T18:46:16.692Z,10.05
2022-12-18T18:48:46.015Z,10.50
2022-12-18T18:51:20.317Z,9.45
2022-12-18T18:53:55.015Z,10.13
2022-12-18T18:56:56.730Z,10.05
2022-12-18T18:59:22.340Z,9.30
2022-12-18T19:01:53.439Z,10.27
2022-12-18T19:04:22.342Z,10.23
2022-12-18T19:06:54.898Z,9.52
2022-12-18T19:09:26.387Z,9.77
2022-12-18T19:12:13.641Z,9.70
2022-12-18T19:14:42.591Z,9.60
2022-12-18T19:17:15.366Z,8.88
2022-12-18T19:19:45.231Z,10.20
2022-12-18T19:22:14.320Z,10.52
2022-12-18T19:24:44.525Z,9.77
2022-12-18T19:27:13.491Z,10.47
2022-12-18T19:29:42.698Z,10.38
2022-12-18T19:32:14.487Z,10.07
2022-12-18T19:34:43.381Z,9.82
2022-12-18T19:37:14.654Z,11.02
2022-12-18T19:39:45.101Z,10.80
2022-12-18T19:42:14.133Z,9.93
2022-12-18T19:44:42.742Z,10.35
2022-12-18T19:47:12.397Z,9.73
2022-12-18T19:49:41.160Z,9.93
2022-12-18T19:52:10.855Z,10.60
2022-12-18T19:54:39.904Z,9.77
2022-12-18T19:57:11.743Z,10.63
2022-12-18T19:59:40.713Z,9.77
2022-12-18T20:02:14.746Z,10.02
2022-12-18T20:04:44.300Z,9.93
2022-12-18T20:07:14.064Z,11.25
2022-12-18T20:09:43.882Z,11.48
2022-12-18T20:12:16.778Z,11.38
2022-12-18T20:14:46.626Z,10.73
2022-12-18T20:17:15.573Z,11.07
2022-12-18T20:19:44.606Z,11.82
2022-12-18T20:22:13.987Z,11.68
2022-12-18T20:24:43.405Z,11.18
2022-12-18T20:27:17.130Z,11.27
2022-12-18T20:29:49.761Z,11.20
2022-12-18T20:32:18.802Z,11.30
2022-12-18T20:34:47.786Z,11.75
2022-12-18T20:37:17.730Z,11.63
2022-12-18T20:39:48.411Z,12.52
2022-12-18T20:42:17.129Z,13.03
2022-12-18T20:44:45.984Z,12.45
2022-12-18T20:47:16.408Z,11.35
2022-12-18T20:49:46.124Z,13.50
2022-12-18T20:52:14.773Z,11.93
2022-12-18T20:54:43.748Z,11.60
2022-12-18T20:57:12.369Z,12.40
2022-12-18T20:59:47.789Z,12.13
2022-12-18T21:02:21.678Z,12.38
2022-12-18T21:04:50.851Z,11.40
2022-12-18T21:07:19.597Z,11.70
2022-12-18T21:09:48.495Z,12.05
2022-12-18T21:12:34.940Z,12.98
2022-12-18T21:15:12.197Z,12.80
2022-12-18T21:17:45.093Z,11.55
2022-12-18T21:20:17.896Z,11.87
2022-12-18T21:22:54.872Z,12.55
2022-12-18T21:25:27.673Z,12.30
2022-12-18T21:27:56.313Z,11.93
2022-12-18T21:30:26.621Z,12.82
2022-12-18T21:32:56.970Z,12.03
2022-12-18T21:35:25.815Z,12.05
2022-12-18T21:37:57.708Z,12.95
2022-12-18T21:40:26.674Z,11.60
2022-12-18T21:43:15.010Z,11.80
2022-12-18T21:45:46.905Z,12.70
2022-12-18T21:48:17.455Z,12.98
2022-12-18T21:50:46.408Z,12.85
2022-12-18T21:53:15.184Z,11.35
2022-12-18T21:55:44.042Z,13.05
2022-12-18T21:58:12.587Z,12.70
2022-12-18T22:00:46.965Z,13.55
2022-12-18T22:03:20.145Z,12.15
2022-12-18T22:06:00.661Z,12.45
2022-12-18T22:08:41.584Z,12.32
2022-12-18T22:11:14.361Z,11.40
2022-12-18T22:13:44.790Z,13.02
2022-12-18T22:16:13.363Z,13.40
2022-12-18T22:18:43.591Z,13.57
2022-12-18T22:21:28.770Z,12.73
2022-12-18T22:24:00.236Z,12.30
2022-12-18T22:26:35.039Z,13.45
2022-12-18T22:29:24.658Z,13.55
2022-12-18T22:31:53.888Z,12.55
2022-12-18T22:34:24.283Z,13.07
2022-12-18T22:36:53.647Z,12.87
2022-12-18T22:39:23.968Z,13.27
2022-12-18T22:41:53.481Z,12.65
2022-12-18T22:44:28.835Z,12.93
2022-12-18T22:47:05.497Z,13.20
2022-12-18T22:49:38.894Z,13.90
2022-12-18T22:52:09.887Z,13.60
2022-12-18T22:54:39.500Z,13.00
2022-12-18T22:57:08.498Z,13.80
2022-12-18T22:59:37.383Z,14.40
2022-12-18T23:02:06.164Z,13.40
2022-12-18T23:04:36.962Z,13.35
2022-12-18T23:07:06.794Z,13.13
2022-12-18T23:09:35.946Z,13.38
2022-12-18T23:12:06.095Z,13.32
2022-12-18T23:14:34.826Z,13.47
2022-12-18T23:17:03.731Z,14.40
2022-12-18T23:19:32.536Z,14.18
2022-12-18T23:22:06.115Z,14.85
2022-12-18T23:24:38.993Z,14.13
2022-12-18T23:27:11.798Z,14.33
2022-12-18T23:29:41.834Z,14.50
2022-12-18T23:32:10.667Z,15.10
2022-12-18T23:34:39.513Z,14.68
2022-12-18T23:37:09.434Z,14.30
2022-12-18T23:39:38.580Z,14.40
2022-12-18T23:42:07.646Z,14.05
2022-12-18T23:44:36.789Z,15.18
2022-12-18T23:47:07.177Z,14.68
2022-12-18T23:49:45.770Z,14.93
2022-12-18T23:52:16.544Z,15.23
2022-12-18T23:54:45.319Z,15.52
2022-12-18T23:57:14.324Z,16.70
2022-12-18T23:59:43.290Z,14.70
